sensor_id;sensor_type;location;lat;lon;timestamp;P1;durP1;ratioP1;P2;durP2;ratioP2
20241;SDS011;10279;46.388;8.116;2024-02-23T00:02:20;0.40;;;0.40;;
20241;SDS011;10279;46.388;8.116;2024-02-23T00:04:47;1.13;;;0.50;;
20241;SDS011;10279;46.388;8.116;2024-02-23T00:07:14;1.50;;;0.60;;
20241;SDS011;10279;46.388;8.116;2024-02-23T00:09:41;0.53;;;0.53;;
20241;SDS011;10279;46.388;8.116;2024-02-23T00:12:08;0.40;;;0.40;;
20241;SDS011;10279;46.388;8.116;2024-02-23T00:14:36;1.27;;;0.40;;
20241;SDS011;10279;46.388;8.116;2024-02-23T00:17:03;0.60;;;0.60;;
20241;SDS011;10279;46.388;8.116;2024-02-23T00:19:31;0.83;;;0.43;;
20241;SDS011;10279;46.388;8.116;2024-02-23T00:21:58;0.43;;;0.43;;
20241;SDS011;10279;46.388;8.116;2024-02-23T00:24:26;0.83;;;0.83;;
20241;SDS011;10279;46.388;8.116;2024-02-23T00:26:53;0.60;;;0.60;;
20241;SDS011;10279;46.388;8.116;2024-02-23T00:29:21;0.40;;;0.40;;
20241;SDS011;10279;46.388;8.116;2024-02-23T00:31:49;1.43;;;0.70;;
20241;SDS011;10279;46.388;8.116;2024-02-23T00:34:16;0.60;;;0.60;;
20241;SDS011;10279;46.388;8.116;2024-02-23T00:36:43;0.80;;;0.60;;
20241;SDS011;10279;46.388;8.116;2024-02-23T00:39:13;0.77;;;0.77;;
20241;SDS011;10279;46.388;8.116;2024-02-23T00:41:40;0.90;;;0.87;;
20241;SDS011;10279;46.388;8.116;2024-02-23T00:44:07;0.43;;;0.43;;
20241;SDS011;10279;46.388;8.116;2024-02-23T00:46:35;0.60;;;0.60;;
20241;SDS011;10279;46.388;8.116;2024-02-23T00:49:02;0.50;;;0.50;;
20241;SDS011;10279;46.388;8.116;2024-02-23T00:51:29;0.40;;;0.40;;
20241;SDS011;10279;46.388;8.116;2024-02-23T00:53:56;0.60;;;0.60;;
20241;SDS011;10279;46.388;8.116;2024-02-23T00:56:23;0.60;;;0.60;;
20241;SDS011;10279;46.388;8.116;2024-02-23T00:59:01;0.57;;;0.57;;
20241;SDS011;10279;46.388;8.116;2024-02-23T01:01:28;0.50;;;0.50;;
20241;SDS011;10279;46.388;8.116;2024-02-23T01:03:55;0.50;;;0.50;;
20241;SDS011;10279;46.388;8.116;2024-02-23T01:06:23;0.60;;;0.60;;
20241;SDS011;10279;46.388;8.116;2024-02-23T01:08:51;0.60;;;0.60;;
20241;SDS011;10279;46.388;8.116;2024-02-23T01:11:18;0.60;;;0.60;;
20241;SDS011;10279;46.388;8.116;2024-02-23T01:13:46;0.60;;;0.60;;
20241;SDS011;10279;46.388;8.116;2024-02-23T01:16:13;0.80;;;0.80;;
20241;SDS011;10279;46.388;8.116;2024-02-23T01:18:40;0.50;;;0.50;;
20241;SDS011;10279;46.388;8.116;2024-02-23T01:21:07;0.40;;;0.40;;
20241;SDS011;10279;46.388;8.116;2024-02-23T01:23:35;0.53;;;0.53;;
20241;SDS011;10279;46.388;8.116;2024-02-23T01:26:05;0.50;;;0.50;;
20241;SDS011;10279;46.388;8.116;2024-02-23T01:28:32;0.93;;;0.60;;
20241;SDS011;10279;46.388;8.116;2024-02-23T01:30:59;1.63;;;0.80;;
20241;SDS011;10279;46.388;8.116;2024-02-23T01:33:27;3.10;;;0.60;;
20241;SDS011;10279;46.388;8.116;2024-02-23T01:35:54;0.50;;;0.50;;
20241;SDS011;10279;46.388;8.116;2024-02-23T01:38:23;0.50;;;0.50;;
20241;SDS011;10279;46.388;8.116;2024-02-23T01:40:51;0.40;;;0.40;;
20241;SDS011;10279;46.388;8.116;2024-02-23T01:43:19;1.70;;;0.50;;
20241;SDS011;10279;46.388;8.116;2024-02-23T01:45:46;0.50;;;0.50;;
20241;SDS011;10279;46.388;8.116;2024-02-23T01:48:13;0.50;;;0.50;;
20241;SDS011;10279;46.388;8.116;2024-02-23T01:50:40;0.60;;;0.60;;
20241;SDS011;10279;46.388;8.116;2024-02-23T01:53:09;0.50;;;0.50;;
20241;SDS011;10279;46.388;8.116;2024-02-23T01:55:40;0.43;;;0.43;;
20241;SDS011;10279;46.388;8.116;2024-02-23T01:58:11;0.50;;;0.50;;
20241;SDS011;10279;46.388;8.116;2024-02-23T02:00:38;0.50;;;0.50;;
20241;SDS011;10279;46.388;8.116;2024-02-23T02:03:05;1.23;;;0.40;;
20241;SDS011;10279;46.388;8.116;2024-02-23T02:05:38;0.43;;;0.43;;
20241;SDS011;10279;46.388;8.116;2024-02-23T02:08:05;0.30;;;0.30;;
20241;SDS011;10279;46.388;8.116;2024-02-23T02:10:33;0.53;;;0.50;;
20241;SDS011;10279;46.388;8.116;2024-02-23T02:13:04;0.53;;;0.30;;
20241;SDS011;10279;46.388;8.116;2024-02-23T02:15:32;0.30;;;0.30;;
20241;SDS011;10279;46.388;8.116;2024-02-23T02:17:59;0.50;;;0.50;;
20241;SDS011;10279;46.388;8.116;2024-02-23T02:20:26;0.50;;;0.50;;
20241;SDS011;10279;46.388;8.116;2024-02-23T02:22:58;1.53;;;0.57;;
20241;SDS011;10279;46.388;8.116;2024-02-23T02:25:26;1.40;;;0.33;;
20241;SDS011;10279;46.388;8.116;2024-02-23T02:27:53;0.70;;;0.60;;
20241;SDS011;10279;46.388;8.116;2024-02-23T02:30:20;0.50;;;0.50;;
20241;SDS011;10279;46.388;8.116;2024-02-23T02:32:47;0.60;;;0.60;;
20241;SDS011;10279;46.388;8.116;2024-02-23T02:35:15;0.70;;;0.70;;
20241;SDS011;10279;46.388;8.116;2024-02-23T02:37:42;0.73;;;0.50;;
20241;SDS011;10279;46.388;8.116;2024-02-23T02:40:09;0.50;;;0.50;;
20241;SDS011;10279;46.388;8.116;2024-02-23T02:42:36;0.70;;;0.70;;
20241;SDS011;10279;46.388;8.116;2024-02-23T02:45:04;0.57;;;0.57;;
20241;SDS011;10279;46.388;8.116;2024-02-23T02:47:31;0.50;;;0.40;;
20241;SDS011;10279;46.388;8.116;2024-02-23T02:49:58;0.50;;;0.50;;
20241;SDS011;10279;46.388;8.116;2024-02-23T02:52:25;0.90;;;0.50;;
20241;SDS011;10279;46.388;8.116;2024-02-23T02:54:53;0.33;;;0.33;;
20241;SDS011;10279;46.388;8.116;2024-02-23T02:57:20;0.50;;;0.50;;
20241;SDS011;10279;46.388;8.116;2024-02-23T02:59:47;0.30;;;0.30;;
20241;SDS011;10279;46.388;8.116;2024-02-23T03:02:17;0.60;;;0.60;;
20241;SDS011;10279;46.388;8.116;2024-02-23T03:04:50;0.67;;;0.67;;
20241;SDS011;10279;46.388;8.116;2024-02-23T03:07:18;0.73;;;0.60;;
20241;SDS011;10279;46.388;8.116;2024-02-23T03:09:45;0.73;;;0.43;;
20241;SDS011;10279;46.388;8.116;2024-02-23T03:12:13;0.60;;;0.60;;
20241;SDS011;10279;46.388;8.116;2024-02-23T03:14:40;1.30;;;0.30;;
20241;SDS011;10279;46.388;8.116;2024-02-23T03:17:07;0.20;;;0.20;;
20241;SDS011;10279;46.388;8.116;2024-02-23T03:19:36;0.30;;;0.30;;
20241;SDS011;10279;46.388;8.116;2024-02-23T03:22:04;0.33;;;0.30;;
20241;SDS011;10279;46.388;8.116;2024-02-23T03:24:31;0.50;;;0.40;;
20241;SDS011;10279;46.388;8.116;2024-02-23T03:26:58;0.20;;;0.20;;
20241;SDS011;10279;46.388;8.116;2024-02-23T03:29:26;0.20;;;0.20;;
20241;SDS011;10279;46.388;8.116;2024-02-23T03:31:57;0.30;;;0.30;;
20241;SDS011;10279;46.388;8.116;2024-02-23T03:34:24;0.30;;;0.30;;
20241;SDS011;10279;46.388;8.116;2024-02-23T03:36:52;0.30;;;0.30;;
20241;SDS011;10279;46.388;8.116;2024-02-23T03:39:19;0.30;;;0.30;;
20241;SDS011;10279;46.388;8.116;2024-02-23T03:41:46;0.47;;;0.47;;
20241;SDS011;10279;46.388;8.116;2024-02-23T03:44:13;0.30;;;0.30;;
20241;SDS011;10279;46.388;8.116;2024-02-23T03:46:40;0.30;;;0.30;;
20241;SDS011;10279;46.388;8.116;2024-02-23T03:49:08;0.30;;;0.30;;
20241;SDS011;10279;46.388;8.116;2024-02-23T03:51:35;0.60;;;0.60;;
20241;SDS011;10279;46.388;8.116;2024-02-23T03:54:06;0.40;;;0.40;;
20241;SDS011;10279;46.388;8.116;2024-02-23T03:56:39;0.50;;;0.50;;
20241;SDS011;10279;46.388;8.116;2024-02-23T03:59:10;0.30;;;0.30;;
20241;SDS011;10279;46.388;8.116;2024-02-23T04:01:37;0.40;;;0.40;;
20241;SDS011;10279;46.388;8.116;2024-02-23T04:04:06;0.40;;;0.40;;
20241;SDS011;10279;46.388;8.116;2024-02-23T04:06:34;0.33;;;0.33;;
20241;SDS011;10279;46.388;8.116;2024-02-23T04:09:01;0.40;;;0.40;;
20241;SDS011;10279;46.388;8.116;2024-02-23T04:11:32;0.40;;;0.40;;
20241;SDS011;10279;46.388;8.116;2024-02-23T04:14:00;0.30;;;0.30;;
20241;SDS011;10279;46.388;8.116;2024-02-23T04:16:27;0.23;;;0.23;;
20241;SDS011;10279;46.388;8.116;2024-02-23T04:18:55;0.37;;;0.20;;
20241;SDS011;10279;46.388;8.116;2024-02-23T04:21:23;0.30;;;0.30;;
20241;SDS011;10279;46.388;8.116;2024-02-23T04:23:50;0.77;;;0.30;;
20241;SDS011;10279;46.388;8.116;2024-02-23T04:26:18;0.20;;;0.20;;
20241;SDS011;10279;46.388;8.116;2024-02-23T04:28:45;0.20;;;0.20;;
20241;SDS011;10279;46.388;8.116;2024-02-23T04:31:12;0.30;;;0.20;;
20241;SDS011;10279;46.388;8.116;2024-02-23T04:33:39;0.20;;;0.20;;
20241;SDS011;10279;46.388;8.116;2024-02-23T04:36:07;0.20;;;0.20;;
20241;SDS011;10279;46.388;8.116;2024-02-23T04:38:35;0.47;;;0.20;;
20241;SDS011;10279;46.388;8.116;2024-02-23T04:41:02;0.20;;;0.20;;
20241;SDS011;10279;46.388;8.116;2024-02-23T04:43:31;0.20;;;0.20;;
20241;SDS011;10279;46.388;8.116;2024-02-23T04:45:58;0.20;;;0.20;;
20241;SDS011;10279;46.388;8.116;2024-02-23T04:48:28;0.10;;;0.10;;
20241;SDS011;10279;46.388;8.116;2024-02-23T04:50:57;0.20;;;0.20;;
20241;SDS011;10279;46.388;8.116;2024-02-23T04:53:24;0.20;;;0.20;;
20241;SDS011;10279;46.388;8.116;2024-02-23T04:55:52;0.30;;;0.20;;
20241;SDS011;10279;46.388;8.116;2024-02-23T04:58:19;0.20;;;0.20;;
20241;SDS011;10279;46.388;8.116;2024-02-23T05:00:47;0.10;;;0.10;;
20241;SDS011;10279;46.388;8.116;2024-02-23T05:03:14;0.20;;;0.20;;
20241;SDS011;10279;46.388;8.116;2024-02-23T05:05:42;0.27;;;0.27;;
20241;SDS011;10279;46.388;8.116;2024-02-23T05:08:09;0.20;;;0.20;;
20241;SDS011;10279;46.388;8.116;2024-02-23T05:10:37;0.33;;;0.33;;
20241;SDS011;10279;46.388;8.116;2024-02-23T05:13:04;0.20;;;0.20;;
20241;SDS011;10279;46.388;8.116;2024-02-23T05:15:31;0.20;;;0.20;;
20241;SDS011;10279;46.388;8.116;2024-02-23T05:17:58;0.30;;;0.30;;
20241;SDS011;10279;46.388;8.116;2024-02-23T05:20:25;0.30;;;0.30;;
20241;SDS011;10279;46.388;8.116;2024-02-23T05:22:52;0.30;;;0.30;;
20241;SDS011;10279;46.388;8.116;2024-02-23T05:25:20;0.43;;;0.20;;
20241;SDS011;10279;46.388;8.116;2024-02-23T05:27:47;0.20;;;0.20;;
20241;SDS011;10279;46.388;8.116;2024-02-23T05:30:14;0.30;;;0.30;;
20241;SDS011;10279;46.388;8.116;2024-02-23T05:32:41;0.20;;;0.20;;
20241;SDS011;10279;46.388;8.116;2024-02-23T05:35:08;0.30;;;0.30;;
20241;SDS011;10279;46.388;8.116;2024-02-23T05:37:36;0.40;;;0.23;;
20241;SDS011;10279;46.388;8.116;2024-02-23T05:40:06;1.70;;;0.30;;
20241;SDS011;10279;46.388;8.116;2024-02-23T05:42:37;1.30;;;0.20;;
20241;SDS011;10279;46.388;8.116;2024-02-23T05:45:06;0.20;;;0.20;;
20241;SDS011;10279;46.388;8.116;2024-02-23T05:47:38;0.40;;;0.20;;
20241;SDS011;10279;46.388;8.116;2024-02-23T05:50:12;0.33;;;0.33;;
20241;SDS011;10279;46.388;8.116;2024-02-23T05:52:39;0.20;;;0.20;;
20241;SDS011;10279;46.388;8.116;2024-02-23T05:55:06;0.50;;;0.20;;
20241;SDS011;10279;46.388;8.116;2024-02-23T05:57:34;0.20;;;0.20;;
20241;SDS011;10279;46.388;8.116;2024-02-23T06:00:02;0.30;;;0.30;;
20241;SDS011;10279;46.388;8.116;2024-02-23T06:02:30;0.43;;;0.37;;
20241;SDS011;10279;46.388;8.116;2024-02-23T06:04:57;1.23;;;0.30;;
20241;SDS011;10279;46.388;8.116;2024-02-23T06:07:24;0.20;;;0.20;;
20241;SDS011;10279;46.388;8.116;2024-02-23T06:09:56;0.33;;;0.33;;
20241;SDS011;10279;46.388;8.116;2024-02-23T06:12:23;0.30;;;0.30;;
20241;SDS011;10279;46.388;8.116;2024-02-23T06:14:51;0.30;;;0.30;;
20241;SDS011;10279;46.388;8.116;2024-02-23T06:17:18;0.73;;;0.40;;
20241;SDS011;10279;46.388;8.116;2024-02-23T06:19:45;0.40;;;0.40;;
20241;SDS011;10279;46.388;8.116;2024-02-23T06:22:12;0.20;;;0.20;;
20241;SDS011;10279;46.388;8.116;2024-02-23T06:24:41;1.07;;;0.40;;
20241;SDS011;10279;46.388;8.116;2024-02-23T06:27:08;0.40;;;0.40;;
20241;SDS011;10279;46.388;8.116;2024-02-23T06:29:35;0.30;;;0.30;;
20241;SDS011;10279;46.388;8.116;2024-02-23T06:32:03;1.07;;;0.40;;
20241;SDS011;10279;46.388;8.116;2024-02-23T06:34:30;3.73;;;0.40;;
20241;SDS011;10279;46.388;8.116;2024-02-23T06:36:57;0.40;;;0.33;;
20241;SDS011;10279;46.388;8.116;2024-02-23T06:39:24;0.30;;;0.30;;
20241;SDS011;10279;46.388;8.116;2024-02-23T06:41:52;0.50;;;0.50;;
20241;SDS011;10279;46.388;8.116;2024-02-23T06:44:19;0.30;;;0.30;;
20241;SDS011;10279;46.388;8.116;2024-02-23T06:46:47;0.40;;;0.33;;
20241;SDS011;10279;46.388;8.116;2024-02-23T06:49:14;0.50;;;0.50;;
20241;SDS011;10279;46.388;8.116;2024-02-23T06:51:41;0.40;;;0.37;;
20241;SDS011;10279;46.388;8.116;2024-02-23T06:54:08;0.40;;;0.40;;
20241;SDS011;10279;46.388;8.116;2024-02-23T06:56:35;0.40;;;0.40;;
20241;SDS011;10279;46.388;8.116;2024-02-23T06:59:03;0.50;;;0.50;;
20241;SDS011;10279;46.388;8.116;2024-02-23T07:01:30;0.40;;;0.40;;
20241;SDS011;10279;46.388;8.116;2024-02-23T07:03:57;0.40;;;0.40;;
20241;SDS011;10279;46.388;8.116;2024-02-23T07:06:25;0.73;;;0.30;;
20241;SDS011;10279;46.388;8.116;2024-02-23T07:08:52;1.33;;;0.40;;
20241;SDS011;10279;46.388;8.116;2024-02-23T07:11:21;0.47;;;0.47;;
20241;SDS011;10279;46.388;8.116;2024-02-23T07:13:48;0.53;;;0.53;;
20241;SDS011;10279;46.388;8.116;2024-02-23T07:16:15;0.53;;;0.40;;
20241;SDS011;10279;46.388;8.116;2024-02-23T07:18:43;0.70;;;0.70;;
20241;SDS011;10279;46.388;8.116;2024-02-23T07:21:10;0.40;;;0.40;;
20241;SDS011;10279;46.388;8.116;2024-02-23T07:23:37;0.40;;;0.40;;
20241;SDS011;10279;46.388;8.116;2024-02-23T07:26:04;0.50;;;0.50;;
20241;SDS011;10279;46.388;8.116;2024-02-23T07:28:31;0.50;;;0.50;;
20241;SDS011;10279;46.388;8.116;2024-02-23T07:30:59;0.60;;;0.60;;
20241;SDS011;10279;46.388;8.116;2024-02-23T07:33:26;0.77;;;0.50;;
20241;SDS011;10279;46.388;8.116;2024-02-23T07:35:54;0.63;;;0.60;;
20241;SDS011;10279;46.388;8.116;2024-02-23T07:38:21;0.50;;;0.50;;
20241;SDS011;10279;46.388;8.116;2024-02-23T07:40:48;0.40;;;0.40;;
20241;SDS011;10279;46.388;8.116;2024-02-23T07:43:15;0.30;;;0.30;;
20241;SDS011;10279;46.388;8.116;2024-02-23T07:45:42;0.53;;;0.53;;
20241;SDS011;10279;46.388;8.116;2024-02-23T07:48:09;0.50;;;0.50;;
20241;SDS011;10279;46.388;8.116;2024-02-23T07:50:37;0.47;;;0.47;;
20241;SDS011;10279;46.388;8.116;2024-02-23T07:53:04;1.10;;;0.57;;
20241;SDS011;10279;46.388;8.116;2024-02-23T07:55:31;0.40;;;0.40;;
20241;SDS011;10279;46.388;8.116;2024-02-23T07:57:59;0.50;;;0.50;;
20241;SDS011;10279;46.388;8.116;2024-02-23T08:00:28;0.53;;;0.43;;
20241;SDS011;10279;46.388;8.116;2024-02-23T08:02:55;0.30;;;0.30;;
20241;SDS011;10279;46.388;8.116;2024-02-23T08:05:26;0.40;;;0.40;;
20241;SDS011;10279;46.388;8.116;2024-02-23T08:07:54;0.40;;;0.40;;
20241;SDS011;10279;46.388;8.116;2024-02-23T08:10:22;0.30;;;0.30;;
20241;SDS011;10279;46.388;8.116;2024-02-23T08:12:49;0.30;;;0.30;;
20241;SDS011;10279;46.388;8.116;2024-02-23T08:15:16;0.40;;;0.40;;
20241;SDS011;10279;46.388;8.116;2024-02-23T08:17:43;0.60;;;0.50;;
20241;SDS011;10279;46.388;8.116;2024-02-23T08:20:11;0.43;;;0.43;;
20241;SDS011;10279;46.388;8.116;2024-02-23T08:22:38;0.90;;;0.50;;
20241;SDS011;10279;46.388;8.116;2024-02-23T08:25:05;0.80;;;0.50;;
20241;SDS011;10279;46.388;8.116;2024-02-23T08:27:35;0.40;;;0.40;;
20241;SDS011;10279;46.388;8.116;2024-02-23T08:30:02;0.30;;;0.30;;
20241;SDS011;10279;46.388;8.116;2024-02-23T08:32:30;0.40;;;0.40;;
20241;SDS011;10279;46.388;8.116;2024-02-23T08:34:57;0.33;;;0.33;;
20241;SDS011;10279;46.388;8.116;2024-02-23T08:37:26;0.70;;;0.43;;
20241;SDS011;10279;46.388;8.116;2024-02-23T08:39:53;0.40;;;0.40;;
20241;SDS011;10279;46.388;8.116;2024-02-23T08:42:20;0.37;;;0.33;;
20241;SDS011;10279;46.388;8.116;2024-02-23T08:44:48;0.30;;;0.20;;
20241;SDS011;10279;46.388;8.116;2024-02-23T08:47:15;3.33;;;0.40;;
20241;SDS011;10279;46.388;8.116;2024-02-23T08:49:42;0.30;;;0.30;;
20241;SDS011;10279;46.388;8.116;2024-02-23T08:52:09;1.37;;;0.30;;
20241;SDS011;10279;46.388;8.116;2024-02-23T08:54:36;0.40;;;0.40;;
20241;SDS011;10279;46.388;8.116;2024-02-23T08:57:05;0.90;;;0.40;;
20241;SDS011;10279;46.388;8.116;2024-02-23T08:59:33;1.80;;;0.57;;
20241;SDS011;10279;46.388;8.116;2024-02-23T09:02:00;1.00;;;0.40;;
20241;SDS011;10279;46.388;8.116;2024-02-23T09:04:27;0.20;;;0.20;;
20241;SDS011;10279;46.388;8.116;2024-02-23T09:06:54;0.23;;;0.23;;
20241;SDS011;10279;46.388;8.116;2024-02-23T09:09:21;0.30;;;0.30;;
20241;SDS011;10279;46.388;8.116;2024-02-23T09:11:49;0.57;;;0.43;;
20241;SDS011;10279;46.388;8.116;2024-02-23T09:14:16;0.60;;;0.40;;
20241;SDS011;10279;46.388;8.116;2024-02-23T09:16:43;1.27;;;0.40;;
20241;SDS011;10279;46.388;8.116;2024-02-23T09:19:12;0.73;;;0.20;;
20241;SDS011;10279;46.388;8.116;2024-02-23T09:21:39;0.30;;;0.30;;
20241;SDS011;10279;46.388;8.116;2024-02-23T09:24:07;0.50;;;0.50;;
20241;SDS011;10279;46.388;8.116;2024-02-23T09:26:34;0.37;;;0.30;;
20241;SDS011;10279;46.388;8.116;2024-02-23T09:29:01;2.00;;;0.40;;
20241;SDS011;10279;46.388;8.116;2024-02-23T09:31:29;0.30;;;0.30;;
20241;SDS011;10279;46.388;8.116;2024-02-23T09:33:58;1.47;;;0.70;;
20241;SDS011;10279;46.388;8.116;2024-02-23T09:36:25;0.40;;;0.40;;
20241;SDS011;10279;46.388;8.116;2024-02-23T09:38:52;0.47;;;0.37;;
20241;SDS011;10279;46.388;8.116;2024-02-23T09:41:20;0.50;;;0.50;;
20241;SDS011;10279;46.388;8.116;2024-02-23T09:43:49;0.37;;;0.37;;
20241;SDS011;10279;46.388;8.116;2024-02-23T09:46:17;0.30;;;0.30;;
20241;SDS011;10279;46.388;8.116;2024-02-23T09:48:45;0.80;;;0.43;;
20241;SDS011;10279;46.388;8.116;2024-02-23T09:51:15;0.97;;;0.40;;
20241;SDS011;10279;46.388;8.116;2024-02-23T09:53:43;2.17;;;0.50;;
20241;SDS011;10279;46.388;8.116;2024-02-23T09:56:10;0.57;;;0.40;;
20241;SDS011;10279;46.388;8.116;2024-02-23T09:58:37;0.40;;;0.30;;
20241;SDS011;10279;46.388;8.116;2024-02-23T10:01:08;0.70;;;0.40;;
20241;SDS011;10279;46.388;8.116;2024-02-23T10:03:38;0.37;;;0.30;;
20241;SDS011;10279;46.388;8.116;2024-02-23T10:06:06;0.30;;;0.30;;
20241;SDS011;10279;46.388;8.116;2024-02-23T10:08:34;0.47;;;0.40;;
20241;SDS011;10279;46.388;8.116;2024-02-23T10:11:01;0.40;;;0.40;;
20241;SDS011;10279;46.388;8.116;2024-02-23T10:13:29;0.33;;;0.30;;
20241;SDS011;10279;46.388;8.116;2024-02-23T10:15:56;0.30;;;0.30;;
20241;SDS011;10279;46.388;8.116;2024-02-23T10:18:40;0.30;;;0.30;;
20241;SDS011;10279;46.388;8.116;2024-02-23T10:21:07;2.40;;;0.40;;
20241;SDS011;10279;46.388;8.116;2024-02-23T10:23:34;0.67;;;0.20;;
20241;SDS011;10279;46.388;8.116;2024-02-23T10:26:07;0.17;;;0.13;;
20241;SDS011;10279;46.388;8.116;2024-02-23T10:28:35;0.40;;;0.30;;
20241;SDS011;10279;46.388;8.116;2024-02-23T10:31:05;0.43;;;0.40;;
20241;SDS011;10279;46.388;8.116;2024-02-23T10:33:37;0.20;;;0.20;;
20241;SDS011;10279;46.388;8.116;2024-02-23T10:36:06;0.57;;;0.30;;
20241;SDS011;10279;46.388;8.116;2024-02-23T10:38:37;0.30;;;0.27;;
20241;SDS011;10279;46.388;8.116;2024-02-23T10:41:07;0.40;;;0.40;;
20241;SDS011;10279;46.388;8.116;2024-02-23T10:43:44;1.13;;;0.43;;
20241;SDS011;10279;46.388;8.116;2024-02-23T10:46:13;0.83;;;0.30;;
20241;SDS011;10279;46.388;8.116;2024-02-23T10:48:43;0.40;;;0.40;;
20241;SDS011;10279;46.388;8.116;2024-02-23T10:51:13;1.70;;;0.30;;
20241;SDS011;10279;46.388;8.116;2024-02-23T10:53:46;0.73;;;0.40;;
20241;SDS011;10279;46.388;8.116;2024-02-23T10:56:15;0.30;;;0.30;;
20241;SDS011;10279;46.388;8.116;2024-02-23T10:58:43;0.30;;;0.30;;
20241;SDS011;10279;46.388;8.116;2024-02-23T11:01:10;0.67;;;0.30;;
20241;SDS011;10279;46.388;8.116;2024-02-23T11:03:38;0.30;;;0.20;;
20241;SDS011;10279;46.388;8.116;2024-02-23T11:06:09;0.93;;;0.27;;
20241;SDS011;10279;46.388;8.116;2024-02-23T11:08:37;0.77;;;0.50;;
20241;SDS011;10279;46.388;8.116;2024-02-23T11:11:10;0.73;;;0.40;;
20241;SDS011;10279;46.388;8.116;2024-02-23T11:13:40;0.50;;;0.30;;
20241;SDS011;10279;46.388;8.116;2024-02-23T11:16:09;0.20;;;0.20;;
20241;SDS011;10279;46.388;8.116;2024-02-23T11:18:39;0.40;;;0.30;;
20241;SDS011;10279;46.388;8.116;2024-02-23T11:21:09;0.33;;;0.27;;
20241;SDS011;10279;46.388;8.116;2024-02-23T11:23:43;1.17;;;0.20;;
20241;SDS011;10279;46.388;8.116;2024-02-23T11:26:11;0.40;;;0.20;;
20241;SDS011;10279;46.388;8.116;2024-02-23T11:28:43;0.63;;;0.43;;
20241;SDS011;10279;46.388;8.116;2024-02-23T11:31:14;0.87;;;0.40;;
20241;SDS011;10279;46.388;8.116;2024-02-23T11:33:48;1.80;;;0.40;;
20241;SDS011;10279;46.388;8.116;2024-02-23T11:38:57;1.50;;;0.40;;
20241;SDS011;10279;46.388;8.116;2024-02-23T11:41:25;0.83;;;0.20;;
20241;SDS011;10279;46.388;8.116;2024-02-23T11:43:53;0.40;;;0.30;;
20241;SDS011;10279;46.388;8.116;2024-02-23T11:46:29;1.63;;;0.23;;
20241;SDS011;10279;46.388;8.116;2024-02-23T11:48:56;0.30;;;0.27;;
20241;SDS011;10279;46.388;8.116;2024-02-23T11:51:24;0.10;;;0.10;;
20241;SDS011;10279;46.388;8.116;2024-02-23T11:53:53;0.30;;;0.30;;
20241;SDS011;10279;46.388;8.116;2024-02-23T11:56:24;0.50;;;0.27;;
20241;SDS011;10279;46.388;8.116;2024-02-23T11:58:53;3.50;;;0.40;;
20241;SDS011;10279;46.388;8.116;2024-02-23T12:01:22;0.90;;;0.70;;
20241;SDS011;10279;46.388;8.116;2024-02-23T12:03:49;0.30;;;0.30;;
20241;SDS011;10279;46.388;8.116;2024-02-23T12:06:16;0.20;;;0.20;;
20241;SDS011;10279;46.388;8.116;2024-02-23T12:08:44;0.77;;;0.33;;
20241;SDS011;10279;46.388;8.116;2024-02-23T12:11:13;1.33;;;0.20;;
20241;SDS011;10279;46.388;8.116;2024-02-23T12:13:40;1.70;;;0.40;;
20241;SDS011;10279;46.388;8.116;2024-02-23T12:16:08;0.33;;;0.30;;
20241;SDS011;10279;46.388;8.116;2024-02-23T12:18:38;0.27;;;0.23;;
20241;SDS011;10279;46.388;8.116;2024-02-23T12:21:05;0.67;;;0.20;;
20241;SDS011;10279;46.388;8.116;2024-02-23T12:23:43;0.30;;;0.30;;
20241;SDS011;10279;46.388;8.116;2024-02-23T12:26:15;0.97;;;0.40;;
20241;SDS011;10279;46.388;8.116;2024-02-23T12:28:44;2.67;;;0.30;;
20241;SDS011;10279;46.388;8.116;2024-02-23T12:31:12;0.77;;;0.47;;
20241;SDS011;10279;46.388;8.116;2024-02-23T12:33:39;0.40;;;0.40;;
20241;SDS011;10279;46.388;8.116;2024-02-23T12:36:08;0.60;;;0.43;;
20241;SDS011;10279;46.388;8.116;2024-02-23T12:38:36;0.17;;;0.17;;
20241;SDS011;10279;46.388;8.116;2024-02-23T12:41:04;0.10;;;0.10;;
20241;SDS011;10279;46.388;8.116;2024-02-23T12:43:32;0.50;;;0.20;;
20241;SDS011;10279;46.388;8.116;2024-02-23T12:45:59;0.20;;;0.20;;
20241;SDS011;10279;46.388;8.116;2024-02-23T12:48:29;0.37;;;0.20;;
20241;SDS011;10279;46.388;8.116;2024-02-23T12:50:56;1.07;;;0.33;;
20241;SDS011;10279;46.388;8.116;2024-02-23T12:53:36;1.90;;;0.50;;
20241;SDS011;10279;46.388;8.116;2024-02-23T12:56:11;0.50;;;0.40;;
20241;SDS011;10279;46.388;8.116;2024-02-23T12:58:43;0.30;;;0.30;;
20241;SDS011;10279;46.388;8.116;2024-02-23T13:01:11;0.97;;;0.33;;
20241;SDS011;10279;46.388;8.116;2024-02-23T13:03:39;0.23;;;0.20;;
20241;SDS011;10279;46.388;8.116;2024-02-23T13:06:09;1.20;;;0.40;;
20241;SDS011;10279;46.388;8.116;2024-02-23T13:08:36;0.40;;;0.20;;
20241;SDS011;10279;46.388;8.116;2024-02-23T13:11:05;0.20;;;0.20;;
20241;SDS011;10279;46.388;8.116;2024-02-23T13:13:33;0.63;;;0.30;;
20241;SDS011;10279;46.388;8.116;2024-02-23T13:16:00;0.20;;;0.20;;
20241;SDS011;10279;46.388;8.116;2024-02-23T13:18:28;0.83;;;0.33;;
20241;SDS011;10279;46.388;8.116;2024-02-23T13:20:55;0.20;;;0.20;;
20241;SDS011;10279;46.388;8.116;2024-02-23T13:23:22;0.30;;;0.30;;
20241;SDS011;10279;46.388;8.116;2024-02-23T13:25:49;1.00;;;0.20;;
20241;SDS011;10279;46.388;8.116;2024-02-23T13:28:16;0.30;;;0.20;;
20241;SDS011;10279;46.388;8.116;2024-02-23T13:30:44;0.30;;;0.20;;
20241;SDS011;10279;46.388;8.116;2024-02-23T13:33:11;0.33;;;0.20;;
20241;SDS011;10279;46.388;8.116;2024-02-23T13:35:38;0.63;;;0.23;;
20241;SDS011;10279;46.388;8.116;2024-02-23T13:38:06;0.10;;;0.10;;
20241;SDS011;10279;46.388;8.116;2024-02-23T13:40:34;1.13;;;0.20;;
20241;SDS011;10279;46.388;8.116;2024-02-23T13:43:01;0.20;;;0.20;;
20241;SDS011;10279;46.388;8.116;2024-02-23T13:45:28;0.20;;;0.20;;
20241;SDS011;10279;46.388;8.116;2024-02-23T13:48:02;0.20;;;0.20;;
20241;SDS011;10279;46.388;8.116;2024-02-23T13:50:32;0.17;;;0.17;;
20241;SDS011;10279;46.388;8.116;2024-02-23T13:53:03;0.30;;;0.20;;
20241;SDS011;10279;46.388;8.116;2024-02-23T13:55:30;0.93;;;0.30;;
20241;SDS011;10279;46.388;8.116;2024-02-23T13:57:57;0.47;;;0.30;;
20241;SDS011;10279;46.388;8.116;2024-02-23T14:00:24;0.10;;;0.10;;
20241;SDS011;10279;46.388;8.116;2024-02-23T14:02:52;0.10;;;0.10;;
20241;SDS011;10279;46.388;8.116;2024-02-23T14:05:19;0.20;;;0.20;;
20241;SDS011;10279;46.388;8.116;2024-02-23T14:07:48;0.20;;;0.20;;
20241;SDS011;10279;46.388;8.116;2024-02-23T14:10:15;0.67;;;0.30;;
20241;SDS011;10279;46.388;8.116;2024-02-23T14:12:42;0.53;;;0.20;;
20241;SDS011;10279;46.388;8.116;2024-02-23T14:15:10;0.13;;;0.13;;
20241;SDS011;10279;46.388;8.116;2024-02-23T14:17:37;0.60;;;0.20;;
20241;SDS011;10279;46.388;8.116;2024-02-23T14:20:05;0.43;;;0.30;;
20241;SDS011;10279;46.388;8.116;2024-02-23T14:22:33;0.10;;;0.10;;
20241;SDS011;10279;46.388;8.116;2024-02-23T14:25:00;0.40;;;0.10;;
20241;SDS011;10279;46.388;8.116;2024-02-23T14:27:28;0.10;;;0.10;;
20241;SDS011;10279;46.388;8.116;2024-02-23T14:29:57;0.10;;;0.10;;
20241;SDS011;10279;46.388;8.116;2024-02-23T14:32:24;0.10;;;0.10;;
20241;SDS011;10279;46.388;8.116;2024-02-23T14:34:52;0.17;;;0.10;;
20241;SDS011;10279;46.388;8.116;2024-02-23T14:37:19;1.53;;;0.30;;
20241;SDS011;10279;46.388;8.116;2024-02-23T14:39:46;0.10;;;0.10;;
20241;SDS011;10279;46.388;8.116;2024-02-23T14:42:13;1.70;;;0.40;;
20241;SDS011;10279;46.388;8.116;2024-02-23T14:44:40;0.20;;;0.10;;
20241;SDS011;10279;46.388;8.116;2024-02-23T14:47:08;1.03;;;0.30;;
20241;SDS011;10279;46.388;8.116;2024-02-23T14:49:35;0.20;;;0.10;;
20241;SDS011;10279;46.388;8.116;2024-02-23T14:52:02;0.20;;;0.20;;
20241;SDS011;10279;46.388;8.116;2024-02-23T14:54:30;0.20;;;0.20;;
20241;SDS011;10279;46.388;8.116;2024-02-23T14:56:59;0.20;;;0.20;;